Time;durP1;ratioP1;P1;durP2;ratioP2;P2;SDS_P1;SDS_P2;PMS_P1;PMS_P2;Temp;Humidity;BMP_temperature;BMP_pressure;BME280_temperature;BME280_humidity;BME280_pressure;Samples;Min_cycle;Max_cycle;Signal;HPM_P1;HPM_P2
2021/03/01 16:10:20;;;;;;;32.90;19.30;;;0.50;91.80;;;;;;5070103;28;20388;-86
2021/03/01 16:12:46;;;;;;;32.67;19.52;;;0.40;92.40;;;;;;5068625;28;20557;-85
2021/03/01 16:15:12;;;;;;;40.63;27.40;;;0.40;93.00;;;;;;5069079;28;20108;-87
2021/03/01 16:17:38;;;;;;;56.38;36.72;;;0.40;93.40;;;;;;5068720;28;20023;-85
2021/03/01 16:20:09;;;;;;;68.65;43.08;;;0.50;93.80;;;;;;5086791;28;20039;-85
2021/03/01 16:22:35;;;;;;;77.13;47.70;;;0.60;94.00;;;;;;5091088;28;20016;-87
2021/03/01 16:25:02;;;;;;;80.53;48.78;;;0.60;94.10;;;;;;5091166;28;20017;-86
2021/03/01 16:27:28;;;;;;;75.72;44.10;;;0.70;94.30;;;;;;5072887;28;20063;-87
2021/03/01 16:29:54;;;;;;;68.15;40.40;;;0.80;94.40;;;;;;5069354;28;20028;-85
2021/03/01 16:32:19;;;;;;;73.90;40.28;;;0.90;94.50;;;;;;5071351;28;20458;-85
2021/03/01 16:34:45;;;;;;;74.65;39.95;;;0.90;94.50;;;;;;5070542;28;20029;-85
2021/03/01 16:37:11;;;;;;;91.32;47.65;;;1.00;94.50;;;;;;5069873;28;20021;-84
2021/03/01 16:39:37;;;;;;;87.88;46.30;;;1.00;94.40;;;;;;5069142;28;20025;-85
2021/03/01 16:42:03;;;;;;;86.82;41.38;;;1.00;94.50;;;;;;5068389;28;20025;-86
2021/03/01 16:44:29;;;;;;;74.57;38.92;;;1.00;94.40;;;;;;5069163;28;20025;-85
2021/03/01 16:46:57;;;;;;;69.00;35.55;;;1.10;94.40;;;;;;5068259;28;20036;-86
2021/03/01 16:49:24;;;;;;;61.45;32.85;;;1.10;94.40;;;;;;5060923;28;20029;-85
2021/03/01 16:51:53;;;;;;;56.15;29.02;;;1.10;94.30;;;;;;5062032;28;20036;-85
2021/03/01 16:54:19;;;;;;;54.45;28.92;;;1.10;94.30;;;;;;5069305;28;20024;-85
2021/03/01 16:56:45;;;;;;;49.08;28.38;;;1.10;94.30;;;;;;5064920;28;20025;-86
2021/03/01 16:59:14;;;;;;;49.10;24.98;;;1.10;94.20;;;;;;5070793;28;20051;-85
2021/03/01 17:01:43;;;;;;;48.05;24.85;;;1.10;94.20;;;;;;5067289;28;20411;-85
2021/03/01 17:04:09;;;;;;;46.03;22.42;;;1.10;94.20;;;;;;5059982;28;20490;-85
2021/03/01 17:06:39;;;;;;;44.88;22.90;;;1.00;94.20;;;;;;5059572;28;20024;-89
2021/03/01 17:09:14;;;;;;;43.63;23.00;;;1.00;94.30;;;;;;5058624;28;20056;-86
2021/03/01 17:11:42;;;;;;;36.97;20.98;;;1.00;94.20;;;;;;5063314;28;20025;-87
2021/03/01 17:14:14;;;;;;;36.75;20.25;;;1.00;94.30;;;;;;5066997;28;20060;-86
2021/03/01 17:16:41;;;;;;;33.28;19.45;;;1.00;94.30;;;;;;5064253;28;20035;-88
2021/03/01 17:19:09;;;;;;;34.20;19.65;;;1.00;94.30;;;;;;5059635;28;20028;-89
2021/03/01 17:21:36;;;;;;;33.03;19.35;;;1.00;94.30;;;;;;5053495;28;20029;-88
2021/03/01 17:24:07;;;;;;;38.05;17.65;;;1.00;94.30;;;;;;5052143;28;20436;-88
2021/03/01 17:26:33;;;;;;;29.85;17.95;;;1.00;94.30;;;;;;5051296;28;20025;-89
2021/03/01 17:29:01;;;;;;;29.50;18.13;;;0.90;94.30;;;;;;5054614;28;20096;-89
2021/03/01 17:31:27;;;;;;;25.65;15.25;;;0.90;94.40;;;;;;5053322;28;20025;-88
2021/03/01 17:33:53;;;;;;;28.10;17.25;;;0.90;94.40;;;;;;5053871;28;20044;-89
2021/03/01 17:36:21;;;;;;;27.95;15.70;;;0.90;94.30;;;;;;5053926;28;20045;-90
2021/03/01 17:38:47;;;;;;;27.50;15.27;;;0.90;94.40;;;;;;5051461;28;20116;-89
2021/03/01 17:41:21;;;;;;;23.85;14.35;;;0.90;94.30;;;;;;5052183;28;20116;-91
2021/03/01 17:43:48;;;;;;;24.90;15.57;;;0.90;94.30;;;;;;5053496;28;20029;-90
2021/03/01 17:46:15;;;;;;;30.02;17.30;;;0.90;94.30;;;;;;5055030;28;20128;-89
2021/03/01 17:48:52;;;;;;;28.77;16.17;;;0.80;94.30;;;;;;5054412;28;20029;-88
2021/03/01 17:51:25;;;;;;;26.17;14.55;;;0.80;94.30;;;;;;5054776;28;20374;-89
2021/03/01 17:54:07;;;;;;;26.00;15.38;;;0.80;94.40;;;;;;5050850;28;20096;-88
2021/03/01 17:56:44;;;;;;;23.48;13.57;;;0.80;94.40;;;;;;5053244;28;20045;-87
2021/03/01 17:59:17;;;;;;;25.90;15.75;;;0.80;94.50;;;;;;5053429;28;20029;-92
2021/03/01 18:01:43;;;;;;;26.67;15.25;;;0.80;94.60;;;;;;5055552;28;20036;-94
2021/03/01 18:04:10;;;;;;;25.38;14.45;;;0.80;94.60;;;;;;5053509;28;20032;-94
2021/03/01 18:06:53;;;;;;;26.25;14.75;;;0.90;94.70;;;;;;5053241;28;20029;-94
2021/03/01 18:09:23;;;;;;;31.48;17.17;;;0.90;94.70;;;;;;5053516;28;20555;-93
2021/03/01 18:11:49;;;;;;;30.05;15.38;;;1.00;94.80;;;;;;5051853;28;20025;-90
2021/03/01 18:14:15;;;;;;;30.73;16.08;;;1.00;94.80;;;;;;5056726;28;20025;-89
2021/03/01 18:16:41;;;;;;;31.33;18.15;;;1.10;94.90;;;;;;5054723;28;20107;-89
2021/03/01 18:19:08;;;;;;;28.63;16.67;;;1.20;95.00;;;;;;5053899;28;20076;-88
2021/03/01 18:21:35;;;;;;;26.65;15.57;;;1.30;95.00;;;;;;5050652;28;20122;-90
2021/03/01 18:24:03;;;;;;;26.25;15.55;;;1.30;95.00;;;;;;5054243;28;20430;-89
2021/03/01 18:26:32;;;;;;;24.15;15.48;;;1.40;95.10;;;;;;5052152;28;20033;-89
2021/03/01 18:28:59;;;;;;;24.02;14.45;;;1.50;95.10;;;;;;5051676;28;20028;-90
2021/03/01 18:31:37;;;;;;;22.92;14.20;;;1.60;95.10;;;;;;5052226;28;20047;-88
2021/03/01 18:34:07;;;;;;;23.55;13.95;;;1.60;95.10;;;;;;5053032;28;20386;-90
2021/03/01 18:36:36;;;;;;;25.33;14.55;;;1.70;95.10;;;;;;5053595;28;20021;-89
2021/03/01 18:39:03;;;;;;;22.33;14.52;;;1.70;95.10;;;;;;5056203;28;20029;-89
2021/03/01 18:41:33;;;;;;;24.40;14.13;;;1.80;95.10;;;;;;5052621;28;20108;-89
2021/03/01 18:44:01;;;;;;;21.60;14.15;;;1.80;95.10;;;;;;5052063;28;20067;-89
2021/03/01 18:46:28;;;;;;;22.25;13.88;;;1.90;95.10;;;;;;5052844;28;20029;-88
2021/03/01 18:48:56;;;;;;;20.77;12.40;;;1.90;95.10;;;;;;5057870;28;20024;-89
2021/03/01 18:51:23;;;;;;;21.10;12.95;;;2.00;95.10;;;;;;5053733;28;20083;-90
2021/03/01 18:53:49;;;;;;;19.98;12.93;;;2.00;95.10;;;;;;5056550;28;20017;-89
2021/03/01 18:56:15;;;;;;;21.40;13.75;;;2.00;95.00;;;;;;5050126;28;20021;-90
2021/03/01 18:58:41;;;;;;;22.20;13.73;;;2.10;95.00;;;;;;5052275;28;20035;-91
2021/03/01 19:01:07;;;;;;;20.67;13.38;;;2.10;95.00;;;;;;5051782;28;20112;-93
2021/03/01 19:03:33;;;;;;;20.52;13.05;;;2.10;95.00;;;;;;5051233;28;20025;-92
2021/03/01 19:05:59;;;;;;;19.13;12.38;;;2.10;94.90;;;;;;5052340;28;20031;-90
2021/03/01 19:08:28;;;;;;;19.92;12.98;;;2.20;94.90;;;;;;5053248;28;20041;-90
2021/03/01 19:10:54;;;;;;;22.20;12.80;;;2.20;94.90;;;;;;5052760;28;20025;-93
2021/03/01 19:13:20;;;;;;;65.60;38.97;;;2.20;94.90;;;;;;5054854;28;20033;-93
2021/03/01 19:15:47;;;;;;;63.38;36.67;;;2.20;94.80;;;;;;5052713;28;20032;-93
2021/03/01 19:18:12;;;;;;;86.65;47.55;;;2.20;94.70;;;;;;5054754;28;20021;-92
2021/03/01 19:20:38;;;;;;;99.28;53.00;;;2.20;94.60;;;;;;5053789;28;20021;-90
2021/03/01 19:23:04;;;;;;;91.78;49.17;;;2.20;94.40;;;;;;5051196;28;20442;-95
2021/03/01 19:25:30;;;;;;;94.90;50.70;;;2.10;94.50;;;;;;5059398;28;20040;-92
2021/03/01 19:27:59;;;;;;;109.38;62.22;;;2.10;94.50;;;;;;5056797;28;20013;-89
2021/03/01 19:30:26;;;;;;;102.50;55.30;;;2.10;94.40;;;;;;5052763;28;20032;-91
2021/03/01 19:32:53;;;;;;;98.03;52.72;;;2.10;94.50;;;;;;5052367;28;20029;-92
2021/03/01 19:35:19;;;;;;;94.10;49.22;;;2.10;94.50;;;;;;5053074;28;20059;-91
2021/03/01 19:41:08;;;;;;;56.25;30.88;;;2.10;94.50;;;;;;5054369;28;20393;-92
2021/03/01 20:25:16;;;;;;;53.00;25.73;;;0.90;93.80;;;;;;5112600;27;20385;-91
